シンガポール/チャンギ の空港の天気 - METARとTAF

シンガポール・チャンギ国際空港 ( WSSS / SIN ) - シンガポール Changi
飛行場実況気象(Metar)
観測時間08/17 19:30 SGT (08/17 11:30 UTC)
風向・風速南南東 5m/s
視程10km以上
天気現象
少しの雲 雲底高度 670m
全天の8割程度の雲 雲底高度 9140m
気温30℃
湿度66%
気圧1010hPa
METARWSSS 171130Z 16010KT 140V200 9999 FEW022 BKN300 30/23 Q1010 NOSIG
過去の天気等 Google飛行場航空写真 Wunderground天気予報

過去48時間のMETAR

飛行場予報(TAF)
発表時間: 8/17 19:00 SGT (8/17 11:00 UTC)
予報対象時間: 17日20時 SGT ~ 19日2時 SGT
風向・風速南 5m/s
視程10km以上
少しの雲 雲底高度 460m
全天の4割程度の雲 雲底高度 610m
TAF WSSS 171100Z 1712/1818 17010KT 9999 FEW015 SCT020